createdAt,value
2022-10-12T00:00:41.022Z,26.63
2022-10-12T00:03:30.515Z,25.65
2022-10-12T00:06:30.868Z,26.75
2022-10-12T00:09:14.523Z,27.08
2022-10-12T00:12:09.432Z,26.77
2022-10-12T00:14:59.523Z,26.35
2022-10-12T00:17:41.770Z,28.27
2022-10-12T00:20:30.564Z,28.70
2022-10-12T00:23:13.778Z,29.38
2022-10-12T00:26:02.510Z,29.42
2022-10-12T00:28:44.892Z,29.95
2022-10-12T00:31:34.538Z,30.92
2022-10-12T00:34:17.816Z,30.50
2022-10-12T00:37:06.497Z,30.23
2022-10-12T00:39:55.568Z,29.98
2022-10-12T00:42:37.702Z,30.83
2022-10-12T00:45:27.537Z,31.45
2022-10-12T00:48:16.770Z,31.92
2022-10-12T00:50:59.527Z,33.08
2022-10-12T00:53:53.836Z,39.85
2022-10-12T00:56:40.787Z,46.88
2022-10-12T00:59:35.544Z,49.95
2022-10-12T01:02:18.787Z,54.08
2022-10-12T01:05:08.528Z,58.05
2022-10-12T01:07:50.785Z,59.78
2022-10-12T01:10:39.531Z,64.20
2022-10-12T01:13:22.782Z,66.35
2022-10-12T01:16:28.476Z,67.18
2022-10-12T01:19:25.418Z,68.68
2022-10-12T01:22:18.556Z,69.10
2022-10-12T01:25:08.821Z,70.65
2022-10-12T01:28:01.557Z,68.78
2022-10-12T01:30:51.855Z,70.60
2022-10-12T01:33:56.515Z,71.80
2022-10-12T01:36:55.552Z,68.28
2022-10-12T01:39:47.470Z,68.07
2022-10-12T01:42:44.549Z,72.70
2022-10-12T01:45:33.793Z,73.70
2022-10-12T01:48:15.510Z,79.22
2022-10-12T01:51:08.781Z,82.03
2022-10-12T01:54:06.496Z,79.23
2022-10-12T01:57:12.423Z,80.45
2022-10-12T02:00:21.493Z,81.03
2022-10-12T02:03:23.384Z,81.38
2022-10-12T02:06:21.488Z,80.70
2022-10-12T02:09:12.314Z,80.80
2022-10-12T02:12:05.567Z,79.63
2022-10-12T02:14:52.336Z,77.13
2022-10-12T02:17:41.591Z,74.97
2022-10-12T02:20:32.798Z,73.57
2022-10-12T02:23:17.572Z,69.38
2022-10-12T02:26:10.710Z,68.00
2022-10-12T02:28:53.755Z,64.25
2022-10-12T02:32:04.784Z,57.92
2022-10-12T02:34:55.563Z,61.00
2022-10-12T02:38:09.783Z,62.92
2022-10-12T02:41:00.497Z,69.13
2022-10-12T02:44:14.405Z,75.32
2022-10-12T02:49:55.406Z,74.22
2022-10-12T02:52:46.496Z,75.53
2022-10-12T02:55:37.408Z,73.60
2022-10-12T02:58:26.510Z,58.40
2022-10-12T03:01:15.581Z,50.13
2022-10-12T03:03:57.796Z,41.67
2022-10-12T03:06:46.494Z,28.05
2022-10-12T03:09:35.498Z,26.08
2022-10-12T03:12:24.383Z,20.92
2022-10-12T03:15:13.535Z,20.38
2022-10-12T03:18:01.807Z,17.20
2022-10-12T03:20:44.503Z,17.80
2022-10-12T03:23:26.766Z,16.23
2022-10-12T03:26:15.542Z,17.83
2022-10-12T03:29:04.824Z,19.88
2022-10-12T03:31:48.518Z,23.27
2022-10-12T03:34:36.770Z,25.95
2022-10-12T03:37:18.495Z,25.13
2022-10-12T03:40:06.871Z,28.88
2022-10-12T03:42:49.507Z,29.35
2022-10-12T03:45:37.781Z,31.50
2022-10-12T03:48:20.512Z,32.38
2022-10-12T03:51:09.505Z,35.30
2022-10-12T03:53:51.786Z,33.28
2022-10-12T03:56:40.553Z,32.10
2022-10-12T03:59:22.786Z,32.10
2022-10-12T04:02:16.535Z,29.90
2022-10-12T04:05:05.485Z,29.52
2022-10-12T04:07:54.508Z,29.15
2022-10-12T04:10:36.811Z,29.90
2022-10-12T04:13:26.513Z,28.65
2022-10-12T04:16:20.475Z,30.95
2022-10-12T04:19:09.517Z,29.58
2022-10-12T04:21:51.805Z,29.08
2022-10-12T04:24:40.495Z,26.33
2022-10-12T04:27:22.797Z,27.08
2022-10-12T04:30:11.500Z,22.67
2022-10-12T04:32:53.809Z,20.98
2022-10-12T04:35:42.514Z,20.58
2022-10-12T04:38:24.820Z,21.55
2022-10-12T04:41:13.524Z,20.73
2022-10-12T04:43:55.778Z,21.52
2022-10-12T04:46:44.514Z,22.15
2022-10-12T04:49:26.804Z,25.05
2022-10-12T04:52:15.565Z,26.65
2022-10-12T04:54:57.806Z,29.70
2022-10-12T04:57:46.504Z,31.63
2022-10-12T05:00:35.572Z,32.33
2022-10-12T05:03:23.790Z,29.83
2022-10-12T05:06:12.588Z,30.33
2022-10-12T05:08:54.784Z,30.90
2022-10-12T05:11:43.501Z,30.10
2022-10-12T05:14:25.811Z,32.25
2022-10-12T05:17:14.555Z,29.42
2022-10-12T05:19:56.790Z,29.30
2022-10-12T05:22:45.579Z,27.52
2022-10-12T05:25:30.333Z,28.85
2022-10-12T05:28:19.566Z,30.65
2022-10-12T05:31:01.810Z,31.77
2022-10-12T05:33:50.575Z,30.98
2022-10-12T05:36:32.802Z,28.83
2022-10-12T05:39:21.556Z,27.90
2022-10-12T05:42:03.755Z,26.98
2022-10-12T05:44:52.506Z,24.77
2022-10-12T05:47:41.522Z,25.75
2022-10-12T05:50:31.594Z,25.10
2022-10-12T05:53:14.960Z,25.13
2022-10-12T05:56:07.884Z,24.38
2022-10-12T05:58:50.529Z,24.30
2022-10-12T06:01:39.568Z,22.00
2022-10-12T06:04:21.903Z,22.23
2022-10-12T06:07:10.521Z,21.45
2022-10-12T06:09:52.882Z,23.75
2022-10-12T06:12:41.465Z,21.23
2022-10-12T06:15:23.748Z,21.63
2022-10-12T06:18:12.542Z,22.35
2022-10-12T06:24:05.500Z,21.95
2022-10-12T06:26:47.799Z,20.48
2022-10-12T06:29:36.572Z,19.85
2022-10-12T06:32:18.790Z,17.10
2022-10-12T06:35:07.515Z,18.08
2022-10-12T06:37:56.772Z,15.80
2022-10-12T06:40:45.564Z,14.85
2022-10-12T06:43:28.778Z,14.98
2022-10-12T06:48:59.839Z,14.13
2022-10-12T06:51:48.490Z,13.18
2022-10-12T06:54:30.957Z,13.25
2022-10-12T06:57:19.516Z,11.63
2022-10-12T07:00:01.763Z,12.13
2022-10-12T07:02:50.498Z,10.68
2022-10-12T07:05:46.364Z,11.70
2022-10-12T07:08:35.586Z,10.52
2022-10-12T07:11:20.773Z,9.60
2022-10-12T07:14:09.477Z,9.20
2022-10-12T07:16:58.392Z,8.35
2022-10-12T07:19:47.486Z,8.85
2022-10-12T07:22:29.796Z,8.75
2022-10-12T07:25:18.509Z,8.48
2022-10-12T07:28:00.817Z,9.02
2022-10-12T07:30:44.495Z,8.70
2022-10-12T07:33:33.098Z,10.63
2022-10-12T07:36:20.912Z,12.32
2022-10-12T07:39:09.831Z,15.25
2022-10-12T07:41:52.495Z,15.00
2022-10-12T07:44:41.548Z,16.33
2022-10-12T07:47:23.784Z,21.45
2022-10-12T07:50:12.476Z,25.50
2022-10-12T07:52:54.803Z,27.88
2022-10-12T07:55:43.540Z,29.25
2022-10-12T07:58:25.836Z,27.33
2022-10-12T08:01:15.562Z,28.15
2022-10-12T08:04:05.401Z,29.67
2022-10-12T08:07:00.491Z,24.83
2022-10-12T08:09:48.756Z,22.92
2022-10-12T08:12:31.484Z,19.40
2022-10-12T08:15:21.849Z,17.63
2022-10-12T08:18:04.575Z,16.55
2022-10-12T08:20:52.840Z,14.60
2022-10-12T08:23:35.485Z,13.38
2022-10-12T08:26:24.474Z,11.23
2022-10-12T08:29:06.767Z,12.55
2022-10-12T08:31:58.535Z,9.95
2022-10-12T08:34:40.810Z,9.43
2022-10-12T08:37:29.486Z,9.25
2022-10-12T08:40:11.759Z,12.90
2022-10-12T08:43:19.594Z,11.15
2022-10-12T08:46:08.776Z,11.25
2022-10-12T08:49:06.539Z,9.85
2022-10-12T08:51:57.761Z,11.32
2022-10-12T08:54:51.494Z,12.18
2022-10-12T08:57:33.760Z,11.70
2022-10-12T09:00:24.520Z,11.68
2022-10-12T09:03:18.775Z,11.45
2022-10-12T09:06:24.501Z,11.32
2022-10-12T09:09:50.492Z,11.57
2022-10-12T09:12:59.788Z,11.98
2022-10-12T09:15:59.554Z,12.57
2022-10-12T09:18:48.814Z,13.38
2022-10-12T09:21:40.483Z,13.90
2022-10-12T09:24:33.754Z,13.23
2022-10-12T09:27:28.472Z,13.43
2022-10-12T09:30:12.752Z,13.23
2022-10-12T09:33:18.500Z,12.65
2022-10-12T09:36:02.822Z,13.82
2022-10-12T09:38:51.495Z,13.95
2022-10-12T09:41:47.771Z,14.05
2022-10-12T09:44:42.517Z,13.60
2022-10-12T09:47:31.155Z,12.82
2022-10-12T09:50:20.486Z,13.82
2022-10-12T09:53:09.511Z,14.00
2022-10-12T09:56:56.379Z,13.88
2022-10-12T09:59:44.502Z,13.32
2022-10-12T10:02:34.474Z,13.95
2022-10-12T10:05:35.768Z,13.73
2022-10-12T10:08:30.481Z,13.55
2022-10-12T10:11:20.505Z,13.88
2022-10-12T10:14:09.824Z,14.70
2022-10-12T10:16:59.461Z,14.05
2022-10-12T10:19:41.744Z,14.02
2022-10-12T10:22:31.480Z,13.73
2022-10-12T10:25:28.811Z,14.98
2022-10-12T10:28:35.600Z,14.10
2022-10-12T10:31:30.380Z,13.35
2022-10-12T10:34:30.483Z,14.27
2022-10-12T10:37:29.742Z,15.55
2022-10-12T10:40:13.769Z,15.32
2022-10-12T10:43:10.598Z,16.48
2022-10-12T10:46:06.557Z,15.18
2022-10-12T10:49:44.420Z,16.98
2022-10-12T10:52:33.506Z,16.90
2022-10-12T10:55:29.763Z,15.68
2022-10-12T10:58:38.469Z,16.38
2022-10-12T11:01:42.598Z,16.98
2022-10-12T11:04:34.839Z,16.90
2022-10-12T11:07:38.504Z,16.83
2022-10-12T11:10:41.480Z,15.65
2022-10-12T11:13:32.783Z,16.73
2022-10-12T11:16:32.489Z,15.98
2022-10-12T11:19:43.351Z,17.55
2022-10-12T11:22:54.479Z,17.20
2022-10-12T11:25:57.810Z,18.05
2022-10-12T11:28:46.963Z,16.70
2022-10-12T11:32:00.529Z,14.65
2022-10-12T11:35:00.798Z,16.40
2022-10-12T11:37:56.486Z,15.80
2022-10-12T11:41:13.676Z,16.27
2022-10-12T11:44:36.403Z,15.75
2022-10-12T11:47:54.468Z,18.38
2022-10-12T11:50:58.961Z,19.05
2022-10-12T11:54:17.750Z,16.73
2022-10-12T11:57:05.547Z,17.25
2022-10-12T12:00:08.804Z,16.80
2022-10-12T12:03:00.494Z,16.60
2022-10-12T12:05:48.839Z,17.58
2022-10-12T12:08:49.566Z,16.25
2022-10-12T12:11:34.801Z,17.65
2022-10-12T12:14:29.567Z,15.95
2022-10-12T12:17:31.782Z,17.60
2022-10-12T12:20:57.670Z,16.38
2022-10-12T12:23:58.763Z,17.20
2022-10-12T12:26:55.511Z,18.20
2022-10-12T12:29:37.755Z,18.75
2022-10-12T12:32:27.538Z,22.92
2022-10-12T12:35:09.764Z,22.20
2022-10-12T12:38:11.492Z,25.05
2022-10-12T12:41:18.750Z,23.38
2022-10-12T12:44:11.502Z,25.40
2022-10-12T12:47:05.992Z,23.30
2022-10-12T12:50:05.501Z,21.48
2022-10-12T12:52:48.912Z,20.35
2022-10-12T12:56:05.490Z,21.02
2022-10-12T12:58:59.550Z,20.80
2022-10-12T13:02:09.599Z,21.10
2022-10-12T13:05:03.951Z,20.92
2022-10-12T13:08:15.472Z,19.83
2022-10-12T13:11:31.498Z,19.25
2022-10-12T13:14:35.529Z,18.63
2022-10-12T13:17:43.040Z,19.48
2022-10-12T13:20:39.506Z,20.40
2022-10-12T13:23:26.753Z,22.27
2022-10-12T13:26:17.490Z,21.60
2022-10-12T13:29:02.015Z,21.23
2022-10-12T13:31:54.808Z,21.73
2022-10-12T13:34:44.770Z,20.80
2022-10-12T13:37:39.532Z,21.60
2022-10-12T13:41:11.792Z,22.27
2022-10-12T13:44:04.480Z,21.88
2022-10-12T13:46:56.514Z,23.20
2022-10-12T13:49:47.817Z,22.65
2022-10-12T13:52:42.547Z,22.73
2022-10-12T13:55:33.768Z,23.48
2022-10-12T13:58:30.505Z,22.17
2022-10-12T14:01:14.804Z,24.27
2022-10-12T14:04:03.546Z,23.25
2022-10-12T14:07:05.405Z,23.35
2022-10-12T14:09:59.590Z,24.73
2022-10-12T14:12:51.510Z,24.67
2022-10-12T14:15:46.748Z,23.98
2022-10-12T14:18:52.485Z,23.88
2022-10-12T14:21:40.744Z,22.40
2022-10-12T14:24:27.786Z,23.90
2022-10-12T14:27:16.782Z,23.63
2022-10-12T14:30:03.497Z,23.50
2022-10-12T14:32:54.046Z,23.48
2022-10-12T14:35:40.964Z,24.40
2022-10-12T14:38:53.783Z,24.83
2022-10-12T14:41:51.539Z,26.25
2022-10-12T14:44:50.840Z,25.35
2022-10-12T14:47:50.514Z,26.35
2022-10-12T14:50:41.032Z,25.25
2022-10-12T14:53:23.476Z,25.70
2022-10-12T14:56:05.487Z,26.80
2022-10-12T14:58:53.748Z,25.67
2022-10-12T15:01:40.947Z,25.73
2022-10-12T15:04:24.671Z,27.05
2022-10-12T15:07:14.529Z,27.95
2022-10-12T15:09:57.437Z,26.67
2022-10-12T15:15:43.489Z,26.92
2022-10-12T15:18:26.610Z,27.05
2022-10-12T15:21:16.815Z,27.02
2022-10-12T15:23:58.487Z,27.77
2022-10-12T15:26:47.388Z,28.58
2022-10-12T15:29:36.495Z,26.45
2022-10-12T15:32:20.712Z,27.30
2022-10-12T15:35:09.523Z,28.70
2022-10-12T15:37:58.810Z,28.27
2022-10-12T15:40:42.784Z,27.38
2022-10-12T15:43:34.747Z,28.08
2022-10-12T15:46:21.487Z,27.85
2022-10-12T15:49:10.984Z,27.60
2022-10-12T15:51:59.528Z,29.90
2022-10-12T15:54:45.517Z,29.98
2022-10-12T15:57:37.463Z,28.67
2022-10-12T16:00:27.120Z,28.48
2022-10-12T16:03:20.243Z,31.08
2022-10-12T16:06:14.530Z,31.55
2022-10-12T16:09:02.927Z,32.05
2022-10-12T16:11:45.505Z,31.67
2022-10-12T16:14:28.177Z,30.92
2022-10-12T16:17:17.627Z,31.67
2022-10-12T16:20:00.135Z,30.55
2022-10-12T16:22:50.497Z,31.25
2022-10-12T16:25:32.895Z,30.70
2022-10-12T16:28:21.534Z,31.77
2022-10-12T16:31:03.855Z,32.67
2022-10-12T16:33:52.466Z,30.95
2022-10-12T16:36:34.932Z,30.23
2022-10-12T16:39:24.544Z,31.33
2022-10-12T16:42:13.939Z,31.38
2022-10-12T16:44:57.540Z,32.92
2022-10-12T16:47:47.832Z,30.08
2022-10-12T16:50:31.482Z,31.98
2022-10-12T16:53:20.827Z,32.10
2022-10-12T16:56:03.526Z,33.05
2022-10-12T16:58:52.484Z,33.40
2022-10-12T17:01:34.839Z,33.22
2022-10-12T17:04:23.530Z,33.70
2022-10-12T17:07:19.315Z,33.92
2022-10-12T17:10:08.468Z,34.38
2022-10-12T17:12:57.411Z,33.63
2022-10-12T17:15:50.468Z,35.30
2022-10-12T17:18:32.890Z,36.85
2022-10-12T17:21:21.718Z,36.50
2022-10-12T17:24:05.830Z,35.28
2022-10-12T17:26:55.470Z,36.03
2022-10-12T17:29:40.621Z,36.08
2022-10-12T17:32:29.564Z,36.83
2022-10-12T17:35:12.975Z,37.78
2022-10-12T17:38:01.474Z,38.25
2022-10-12T17:40:53.543Z,37.63
2022-10-12T17:43:43.830Z,40.17
2022-10-12T17:46:25.496Z,40.03
2022-10-12T17:49:15.510Z,38.80
2022-10-12T17:51:58.046Z,42.30
2022-10-12T17:54:47.494Z,41.22
2022-10-12T17:57:29.941Z,37.95
2022-10-12T18:00:19.874Z,38.00
2022-10-12T18:03:01.956Z,41.10
2022-10-12T18:05:50.452Z,40.50
2022-10-12T18:08:46.533Z,39.30
2022-10-12T18:11:34.744Z,39.15
2022-10-12T18:14:19.484Z,39.03
2022-10-12T18:17:08.572Z,40.13
2022-10-12T18:19:50.841Z,38.45
2022-10-12T18:22:39.605Z,39.25
2022-10-12T18:25:21.925Z,40.25
2022-10-12T18:28:10.525Z,40.40
2022-10-12T18:30:58.873Z,40.30
2022-10-12T18:33:48.509Z,38.47
2022-10-12T18:36:30.781Z,40.28
2022-10-12T18:39:19.518Z,40.13
2022-10-12T18:42:01.844Z,38.95
2022-10-12T18:44:50.446Z,40.17
2022-10-12T18:47:32.980Z,38.97
2022-10-12T18:50:21.472Z,42.95
2022-10-12T18:53:03.925Z,41.50
2022-10-12T18:55:52.480Z,41.67
2022-10-12T18:58:34.900Z,40.25
2022-10-12T19:01:26.456Z,41.97
2022-10-12T19:04:09.842Z,42.00
2022-10-12T19:06:58.462Z,42.60
2022-10-12T19:09:53.830Z,43.35
2022-10-12T19:12:45.836Z,40.88
2022-10-12T19:15:28.468Z,41.95
2022-10-12T19:18:10.644Z,41.88
2022-10-12T19:20:59.502Z,42.55
2022-10-12T19:23:49.757Z,41.10
2022-10-12T19:26:35.475Z,42.05
2022-10-12T19:29:17.713Z,42.47
2022-10-12T19:32:06.544Z,44.40
2022-10-12T19:34:57.812Z,43.35
2022-10-12T19:37:40.529Z,42.80
2022-10-12T19:40:22.695Z,46.33
2022-10-12T19:43:11.509Z,43.75
2022-10-12T19:45:59.746Z,43.55
2022-10-12T19:48:42.561Z,43.50
2022-10-12T19:51:33.587Z,45.70
2022-10-12T19:54:19.453Z,44.72
2022-10-12T19:57:07.758Z,43.97
2022-10-12T19:59:50.526Z,44.92
2022-10-12T20:02:42.247Z,43.70
2022-10-12T20:05:25.483Z,45.72
2022-10-12T20:08:13.725Z,44.78
2022-10-12T20:10:55.820Z,45.22
2022-10-12T20:13:44.716Z,45.28
2022-10-12T20:16:32.488Z,45.60
2022-10-12T20:19:23.789Z,47.25
2022-10-12T20:22:05.433Z,45.42
2022-10-12T20:24:47.618Z,46.88
2022-10-12T20:27:36.448Z,45.88
2022-10-12T20:30:18.763Z,45.45
2022-10-12T20:33:08.437Z,45.50
2022-10-12T20:35:58.380Z,44.95
2022-10-12T20:38:47.443Z,45.47
2022-10-12T20:41:36.643Z,45.55
2022-10-12T20:44:25.445Z,46.70
2022-10-12T20:47:07.621Z,47.80
2022-10-12T20:49:57.513Z,47.15
2022-10-12T20:52:45.743Z,48.65
2022-10-12T20:55:28.482Z,49.25
2022-10-12T20:58:11.788Z,50.17
2022-10-12T21:01:00.459Z,49.33
2022-10-12T21:03:43.487Z,49.08
2022-10-12T21:06:32.502Z,51.13
2022-10-12T21:09:22.744Z,51.50
2022-10-12T21:12:04.740Z,53.70
2022-10-12T21:14:52.720Z,52.00
2022-10-12T21:17:34.434Z,57.13
2022-10-12T21:20:23.438Z,60.13
2022-10-12T21:23:05.722Z,60.95
2022-10-12T21:25:54.493Z,60.53
2022-10-12T21:28:36.770Z,59.90
2022-10-12T21:31:31.007Z,60.55
2022-10-12T21:34:15.824Z,60.50
2022-10-12T21:37:04.475Z,62.35
2022-10-12T21:39:49.576Z,63.30
2022-10-12T21:42:40.486Z,61.58
2022-10-12T21:45:22.696Z,61.47
2022-10-12T21:48:11.434Z,61.28
2022-10-12T21:51:00.426Z,62.42
2022-10-12T21:53:43.159Z,60.70
2022-10-12T21:56:35.433Z,60.47
2022-10-12T21:59:17.652Z,61.00
2022-10-12T22:02:06.610Z,61.92
2022-10-12T22:04:50.701Z,59.67
2022-10-12T22:07:39.439Z,60.60
2022-10-12T22:10:28.337Z,60.30
2022-10-12T22:13:17.427Z,58.03
2022-10-12T22:16:09.015Z,58.92
2022-10-12T22:18:58.418Z,58.03
2022-10-12T22:21:47.471Z,58.97
2022-10-12T22:24:35.765Z,56.45
2022-10-12T22:27:26.457Z,58.55
2022-10-12T22:30:08.730Z,56.22
2022-10-12T22:32:57.488Z,59.90
2022-10-12T22:35:40.717Z,57.67
2022-10-12T22:38:29.419Z,57.05
2022-10-12T22:41:14.720Z,55.88
2022-10-12T22:44:04.399Z,57.90
2022-10-12T22:46:53.423Z,57.72
2022-10-12T22:49:35.613Z,55.35
2022-10-12T22:52:24.450Z,56.42
2022-10-12T22:55:06.976Z,54.25
2022-10-12T22:57:55.462Z,55.13
2022-10-12T23:00:44.798Z,53.45
2022-10-12T23:03:27.409Z,54.53
2022-10-12T23:06:21.343Z,53.22
2022-10-12T23:09:17.415Z,52.25
2022-10-12T23:12:00.598Z,50.92
2022-10-12T23:14:49.422Z,50.75
2022-10-12T23:17:37.709Z,52.30
2022-10-12T23:20:20.468Z,50.28
2022-10-12T23:23:02.672Z,48.28
2022-10-12T23:25:54.432Z,49.58
2022-10-12T23:28:36.677Z,47.50
2022-10-12T23:31:34.476Z,46.40
2022-10-12T23:34:22.749Z,47.80
2022-10-12T23:37:04.404Z,48.47
2022-10-12T23:39:46.601Z,47.75
2022-10-12T23:42:35.479Z,47.13
2022-10-12T23:45:24.722Z,43.60
2022-10-12T23:48:07.417Z,44.22
2022-10-12T23:50:52.832Z,45.20
2022-10-12T23:53:42.420Z,44.30
2022-10-12T23:56:30.676Z,44.50
2022-10-12T23:59:12.482Z,44.05
